sensor_id;sensor_type;location;lat;lon;timestamp;pressure;altitude;pressure_sealevel;temperature;humidity
38225;BME280;24025;48.138;11.428;2022-07-01T00:02:20;95397.25;;;19.09;79.64
38225;BME280;24025;48.138;11.428;2022-07-01T00:04:50;95401.63;;;19.03;79.65
38225;BME280;24025;48.138;11.428;2022-07-01T00:07:21;95407.38;;;19.05;78.84
38225;BME280;24025;48.138;11.428;2022-07-01T00:09:52;95404.34;;;19.03;77.25
38225;BME280;24025;48.138;11.428;2022-07-01T00:12:22;95390.50;;;19.01;77.17
38225;BME280;24025;48.138;11.428;2022-07-01T00:14:52;95383.63;;;18.96;77.23
38225;BME280;24025;48.138;11.428;2022-07-01T00:17:23;95386.84;;;18.91;76.25
38225;BME280;24025;48.138;11.428;2022-07-01T00:19:53;95413.94;;;18.87;75.65
38225;BME280;24025;48.138;11.428;2022-07-01T00:22:24;95430.91;;;18.88;74.76
38225;BME280;24025;48.138;11.428;2022-07-01T00:24:55;95434.88;;;18.83;73.24
38225;BME280;24025;48.138;11.428;2022-07-01T00:27:26;95428.34;;;18.81;73.06
38225;BME280;24025;48.138;11.428;2022-07-01T00:29:56;95435.78;;;18.77;72.41
38225;BME280;24025;48.138;11.428;2022-07-01T00:32:26;95432.16;;;18.83;72.35
38225;BME280;24025;48.138;11.428;2022-07-01T00:34:57;95428.44;;;18.77;71.88
38225;BME280;24025;48.138;11.428;2022-07-01T00:37:27;95423.31;;;18.83;71.67
38225;BME280;24025;48.138;11.428;2022-07-01T00:39:58;95419.97;;;18.75;70.28
38225;BME280;24025;48.138;11.428;2022-07-01T00:42:28;95432.03;;;18.71;70.42
38225;BME280;24025;48.138;11.428;2022-07-01T00:44:59;95441.41;;;18.62;70.64
38225;BME280;24025;48.138;11.428;2022-07-01T00:47:29;95442.50;;;18.68;69.86
38225;BME280;24025;48.138;11.428;2022-07-01T00:50:00;95432.44;;;18.69;69.36
38225;BME280;24025;48.138;11.428;2022-07-01T00:52:30;95426.72;;;18.63;69.09
38225;BME280;24025;48.138;11.428;2022-07-01T00:55:03;95443.69;;;18.64;68.63
38225;BME280;24025;48.138;11.428;2022-07-01T00:57:36;95444.28;;;18.55;68.52
38225;BME280;24025;48.138;11.428;2022-07-01T01:00:08;95452.09;;;18.50;68.81
38225;BME280;24025;48.138;11.428;2022-07-01T01:02:39;95450.28;;;18.43;68.45
38225;BME280;24025;48.138;11.428;2022-07-01T01:05:10;95453.28;;;18.49;68.41
38225;BME280;24025;48.138;11.428;2022-07-01T01:07:40;95450.16;;;18.50;68.88
38225;BME280;24025;48.138;11.428;2022-07-01T01:10:11;95453.28;;;18.49;68.69
38225;BME280;24025;48.138;11.428;2022-07-01T01:12:43;95450.44;;;18.56;68.56
38225;BME280;24025;48.138;11.428;2022-07-01T01:15:18;95462.91;;;18.50;68.74
38225;BME280;24025;48.138;11.428;2022-07-01T01:17:49;95465.53;;;18.53;68.77
38225;BME280;24025;48.138;11.428;2022-07-01T01:20:20;95463.09;;;18.59;68.92
38225;BME280;24025;48.138;11.428;2022-07-01T01:22:50;95472.44;;;18.54;69.02
38225;BME280;24025;48.138;11.428;2022-07-01T01:25:21;95475.84;;;18.58;69.25
38225;BME280;24025;48.138;11.428;2022-07-01T01:27:51;95467.19;;;18.47;69.76
38225;BME280;24025;48.138;11.428;2022-07-01T01:30:22;95470.59;;;18.51;69.61
38225;BME280;24025;48.138;11.428;2022-07-01T01:32:52;95465.94;;;18.52;69.69
38225;BME280;24025;48.138;11.428;2022-07-01T01:35:23;95461.38;;;18.49;70.19
38225;BME280;24025;48.138;11.428;2022-07-01T01:37:53;95455.06;;;18.35;70.61
38225;BME280;24025;48.138;11.428;2022-07-01T01:40:24;95448.47;;;18.36;70.70
38225;BME280;24025;48.138;11.428;2022-07-01T01:42:54;95453.19;;;18.32;71.35
38225;BME280;24025;48.138;11.428;2022-07-01T01:45:25;95453.63;;;18.31;71.72
38225;BME280;24025;48.138;11.428;2022-07-01T01:47:55;95438.72;;;18.23;72.09
38225;BME280;24025;48.138;11.428;2022-07-01T01:50:26;95434.53;;;18.18;72.64
38225;BME280;24025;48.138;11.428;2022-07-01T01:52:56;95442.94;;;18.24;72.48
38225;BME280;24025;48.138;11.428;2022-07-01T01:55:26;95438.63;;;18.26;72.45
38225;BME280;24025;48.138;11.428;2022-07-01T01:57:57;95440.31;;;18.20;72.85
38225;BME280;24025;48.138;11.428;2022-07-01T02:00:27;95441.84;;;18.21;73.06
38225;BME280;24025;48.138;11.428;2022-07-01T02:02:58;95448.75;;;18.22;73.01
38225;BME280;24025;48.138;11.428;2022-07-01T02:05:29;95444.91;;;18.20;72.99
38225;BME280;24025;48.138;11.428;2022-07-01T02:08:00;95453.03;;;18.20;73.46
38225;BME280;24025;48.138;11.428;2022-07-01T02:10:30;95448.41;;;18.20;73.37
38225;BME280;24025;48.138;11.428;2022-07-01T02:13:01;95450.41;;;18.16;73.50
38225;BME280;24025;48.138;11.428;2022-07-01T02:15:31;95452.53;;;18.05;74.12
38225;BME280;24025;48.138;11.428;2022-07-01T02:18:02;95459.09;;;18.04;74.11
38225;BME280;24025;48.138;11.428;2022-07-01T02:20:32;95458.50;;;17.93;74.73
38225;BME280;24025;48.138;11.428;2022-07-01T02:23:04;95466.66;;;17.89;74.91
38225;BME280;24025;48.138;11.428;2022-07-01T02:25:35;95473.53;;;17.94;74.78
38225;BME280;24025;48.138;11.428;2022-07-01T02:28:05;95477.00;;;17.94;75.17
38225;BME280;24025;48.138;11.428;2022-07-01T02:30:36;95484.19;;;18.01;75.14
38225;BME280;24025;48.138;11.428;2022-07-01T02:33:07;95484.50;;;18.06;74.82
38225;BME280;24025;48.138;11.428;2022-07-01T02:35:39;95481.38;;;18.08;74.86
38225;BME280;24025;48.138;11.428;2022-07-01T02:38:10;95482.97;;;18.05;75.03
38225;BME280;24025;48.138;11.428;2022-07-01T02:40:40;95481.78;;;18.06;74.89
38225;BME280;24025;48.138;11.428;2022-07-01T02:43:11;95489.19;;;18.02;75.15
38225;BME280;24025;48.138;11.428;2022-07-01T02:45:42;95500.38;;;18.01;75.30
38225;BME280;24025;48.138;11.428;2022-07-01T02:48:13;95502.69;;;18.02;75.53
38225;BME280;24025;48.138;11.428;2022-07-01T02:50:43;95498.41;;;18.05;75.46
38225;BME280;24025;48.138;11.428;2022-07-01T02:53:13;95497.22;;;18.06;75.46
38225;BME280;24025;48.138;11.428;2022-07-01T02:55:44;95497.16;;;18.09;75.48
38225;BME280;24025;48.138;11.428;2022-07-01T02:58:14;95494.06;;;18.11;75.15
38225;BME280;24025;48.138;11.428;2022-07-01T03:00:45;95487.84;;;18.14;75.06
38225;BME280;24025;48.138;11.428;2022-07-01T03:03:15;95493.16;;;18.18;74.73
38225;BME280;24025;48.138;11.428;2022-07-01T03:05:46;95497.13;;;18.13;74.89
38225;BME280;24025;48.138;11.428;2022-07-01T03:08:18;95497.56;;;18.08;75.18
38225;BME280;24025;48.138;11.428;2022-07-01T03:10:48;95496.78;;;18.11;75.35
38225;BME280;24025;48.138;11.428;2022-07-01T03:13:18;95508.72;;;18.10;75.36
38225;BME280;24025;48.138;11.428;2022-07-01T03:15:49;95515.81;;;18.00;75.82
38225;BME280;24025;48.138;11.428;2022-07-01T03:18:20;95516.53;;;18.04;75.46
38225;BME280;24025;48.138;11.428;2022-07-01T03:20:50;95519.56;;;18.06;75.42
38225;BME280;24025;48.138;11.428;2022-07-01T03:23:21;95523.38;;;18.09;75.60
38225;BME280;24025;48.138;11.428;2022-07-01T03:25:52;95521.84;;;18.08;75.49
38225;BME280;24025;48.138;11.428;2022-07-01T03:28:22;95516.94;;;18.03;75.85
38225;BME280;24025;48.138;11.428;2022-07-01T03:30:53;95516.94;;;18.03;75.78
38225;BME280;24025;48.138;11.428;2022-07-01T03:33:23;95520.00;;;18.05;75.70
38225;BME280;24025;48.138;11.428;2022-07-01T03:35:53;95509.25;;;18.01;75.96
38225;BME280;24025;48.138;11.428;2022-07-01T03:38:24;95508.91;;;17.99;76.15
38225;BME280;24025;48.138;11.428;2022-07-01T03:40:54;95511.59;;;17.99;76.19
38225;BME280;24025;48.138;11.428;2022-07-01T03:43:25;95509.63;;;18.03;76.36
38225;BME280;24025;48.138;11.428;2022-07-01T03:45:55;95508.09;;;18.02;76.47
38225;BME280;24025;48.138;11.428;2022-07-01T03:48:25;95507.94;;;18.09;76.36
38225;BME280;24025;48.138;11.428;2022-07-01T03:50:56;95509.84;;;18.13;76.20
38225;BME280;24025;48.138;11.428;2022-07-01T03:53:26;95524.88;;;18.14;76.30
38225;BME280;24025;48.138;11.428;2022-07-01T03:56:15;95527.44;;;18.21;75.95
38225;BME280;24025;48.138;11.428;2022-07-01T03:58:46;95521.53;;;18.29;75.52
38225;BME280;24025;48.138;11.428;2022-07-01T04:01:16;95521.44;;;18.33;75.42
38225;BME280;24025;48.138;11.428;2022-07-01T04:03:46;95521.53;;;18.29;75.64
38225;BME280;24025;48.138;11.428;2022-07-01T04:06:17;95525.59;;;18.37;75.50
38225;BME280;24025;48.138;11.428;2022-07-01T04:08:48;95527.06;;;18.42;74.83
38225;BME280;24025;48.138;11.428;2022-07-01T04:11:19;95528.66;;;18.39;74.71
38225;BME280;24025;48.138;11.428;2022-07-01T04:13:50;95525.59;;;18.37;74.80
38225;BME280;24025;48.138;11.428;2022-07-01T04:16:20;95525.97;;;18.39;75.03
38225;BME280;24025;48.138;11.428;2022-07-01T04:18:51;95513.56;;;18.42;74.43
38225;BME280;24025;48.138;11.428;2022-07-01T04:21:22;95518.13;;;18.45;74.99
38225;BME280;24025;48.138;11.428;2022-07-01T04:24:11;95505.34;;;18.49;74.96
38225;BME280;24025;48.138;11.428;2022-07-01T04:26:43;95497.94;;;18.53;74.52
38225;BME280;24025;48.138;11.428;2022-07-01T04:29:14;95483.13;;;18.61;74.74
38225;BME280;24025;48.138;11.428;2022-07-01T04:31:45;95478.03;;;18.67;74.77
38225;BME280;24025;48.138;11.428;2022-07-01T04:34:16;95485.28;;;18.70;74.50
38225;BME280;24025;48.138;11.428;2022-07-01T04:36:46;95490.97;;;18.76;73.83
38225;BME280;24025;48.138;11.428;2022-07-01T04:39:17;95503.66;;;18.79;73.72
38225;BME280;24025;48.138;11.428;2022-07-01T04:41:47;95503.66;;;18.79;73.95
38225;BME280;24025;48.138;11.428;2022-07-01T04:44:33;95501.28;;;18.81;73.87
38225;BME280;24025;48.138;11.428;2022-07-01T04:47:04;95500.81;;;18.86;73.52
38225;BME280;24025;48.138;11.428;2022-07-01T04:49:35;95488.81;;;18.87;73.72
38225;BME280;24025;48.138;11.428;2022-07-01T04:52:06;95491.53;;;18.87;73.52
38225;BME280;24025;48.138;11.428;2022-07-01T04:54:36;95479.88;;;18.90;74.02
38225;BME280;24025;48.138;11.428;2022-07-01T04:57:07;95471.00;;;18.89;74.03
38225;BME280;24025;48.138;11.428;2022-07-01T04:59:37;95462.84;;;18.93;73.41
38225;BME280;24025;48.138;11.428;2022-07-01T05:02:08;95453.22;;;18.92;73.17
38225;BME280;24025;48.138;11.428;2022-07-01T05:04:38;95454.31;;;18.94;72.84
38225;BME280;24025;48.138;11.428;2022-07-01T05:07:10;95467.41;;;18.96;72.50
38225;BME280;24025;48.138;11.428;2022-07-01T05:09:58;95474.84;;;18.92;72.45
38225;BME280;24025;48.138;11.428;2022-07-01T05:12:31;95487.94;;;18.93;73.46
38225;BME280;24025;48.138;11.428;2022-07-01T05:15:02;95494.38;;;19.00;73.24
38225;BME280;24025;48.138;11.428;2022-07-01T05:17:34;95497.00;;;19.03;72.33
38225;BME280;24025;48.138;11.428;2022-07-01T05:20:23;95492.63;;;19.09;72.97
38225;BME280;24025;48.138;11.428;2022-07-01T05:23:12;95488.66;;;19.14;73.64
38225;BME280;24025;48.138;11.428;2022-07-01T05:25:42;95488.94;;;19.19;73.78
38225;BME280;24025;48.138;11.428;2022-07-01T05:28:13;95511.47;;;19.13;72.04
38225;BME280;24025;48.138;11.428;2022-07-01T05:30:43;95520.06;;;19.08;72.86
38225;BME280;24025;48.138;11.428;2022-07-01T05:33:14;95517.53;;;19.01;73.02
38225;BME280;24025;48.138;11.428;2022-07-01T05:35:44;95516.06;;;18.96;73.24
38225;BME280;24025;48.138;11.428;2022-07-01T05:38:15;95524.28;;;18.89;73.28
38225;BME280;24025;48.138;11.428;2022-07-01T05:40:45;95521.97;;;18.91;73.40
38225;BME280;24025;48.138;11.428;2022-07-01T05:43:15;95541.06;;;18.80;73.38
38225;BME280;24025;48.138;11.428;2022-07-01T05:45:47;95553.38;;;18.81;73.81
38225;BME280;24025;48.138;11.428;2022-07-01T05:48:17;95559.34;;;18.73;73.92
38225;BME280;24025;48.138;11.428;2022-07-01T05:50:48;95563.34;;;18.64;74.22
38225;BME280;24025;48.138;11.428;2022-07-01T05:53:19;95568.75;;;18.64;74.49
38225;BME280;24025;48.138;11.428;2022-07-01T05:55:49;95580.78;;;18.60;74.96
38225;BME280;24025;48.138;11.428;2022-07-01T05:58:20;95571.44;;;18.64;74.64
38225;BME280;24025;48.138;11.428;2022-07-01T06:00:51;95570.81;;;18.57;75.06
38225;BME280;24025;48.138;11.428;2022-07-01T06:03:21;95553.69;;;18.63;75.06
38225;BME280;24025;48.138;11.428;2022-07-01T06:05:51;95550.56;;;18.68;74.81
38225;BME280;24025;48.138;11.428;2022-07-01T06:08:22;95558.03;;;18.81;74.50
38225;BME280;24025;48.138;11.428;2022-07-01T06:10:52;95557.47;;;18.70;74.47
38225;BME280;24025;48.138;11.428;2022-07-01T06:13:23;95562.69;;;18.80;73.59
38225;BME280;24025;48.138;11.428;2022-07-01T06:15:53;95573.91;;;18.79;73.58
38225;BME280;24025;48.138;11.428;2022-07-01T06:18:24;95590.41;;;18.61;74.52
38225;BME280;24025;48.138;11.428;2022-07-01T06:20:55;95590.75;;;18.63;74.66
38225;BME280;24025;48.138;11.428;2022-07-01T06:23:25;95601.38;;;18.50;74.99
38225;BME280;24025;48.138;11.428;2022-07-01T06:25:56;95599.91;;;18.22;75.83
38225;BME280;24025;48.138;11.428;2022-07-01T06:28:26;95599.72;;;18.09;76.41
38225;BME280;24025;48.138;11.428;2022-07-01T06:30:59;95600.47;;;18.10;76.51
38225;BME280;24025;48.138;11.428;2022-07-01T06:33:30;95597.81;;;18.33;75.75
38225;BME280;24025;48.138;11.428;2022-07-01T06:36:00;95605.84;;;18.60;74.48
38225;BME280;24025;48.138;11.428;2022-07-01T06:38:31;95603.28;;;18.77;74.07
38225;BME280;24025;48.138;11.428;2022-07-01T06:41:01;95606.75;;;18.97;73.20
38225;BME280;24025;48.138;11.428;2022-07-01T06:43:50;95614.28;;;19.09;72.25
38225;BME280;24025;48.138;11.428;2022-07-01T06:46:21;95597.44;;;19.02;72.21
38225;BME280;24025;48.138;11.428;2022-07-01T06:48:52;95612.59;;;19.15;71.79
38225;BME280;24025;48.138;11.428;2022-07-01T06:51:23;95610.25;;;19.17;71.87
38225;BME280;24025;48.138;11.428;2022-07-01T06:53:55;95604.06;;;19.17;72.22
38225;BME280;24025;48.138;11.428;2022-07-01T06:56:25;95602.41;;;19.23;71.77
38225;BME280;24025;48.138;11.428;2022-07-01T06:58:56;95599.16;;;19.32;70.71
38225;BME280;24025;48.138;11.428;2022-07-01T07:01:27;95601.44;;;19.33;69.70
38225;BME280;24025;48.138;11.428;2022-07-01T07:03:58;95606.00;;;19.16;71.27
38225;BME280;24025;48.138;11.428;2022-07-01T07:06:28;95612.97;;;18.74;72.97
38225;BME280;24025;48.138;11.428;2022-07-01T07:08:59;95614.91;;;18.50;73.93
38225;BME280;24025;48.138;11.428;2022-07-01T07:11:29;95614.59;;;18.45;74.26
38225;BME280;24025;48.138;11.428;2022-07-01T07:14:00;95623.28;;;18.32;74.80
38225;BME280;24025;48.138;11.428;2022-07-01T07:16:30;95625.16;;;18.12;75.21
38225;BME280;24025;48.138;11.428;2022-07-01T07:19:01;95629.47;;;18.06;75.79
38225;BME280;24025;48.138;11.428;2022-07-01T07:21:31;95633.88;;;17.93;75.31
38225;BME280;24025;48.138;11.428;2022-07-01T07:24:02;95638.56;;;17.89;75.31
38225;BME280;24025;48.138;11.428;2022-07-01T07:26:32;95644.91;;;17.75;75.72
38225;BME280;24025;48.138;11.428;2022-07-01T07:29:03;95638.94;;;17.56;76.33
38225;BME280;24025;48.138;11.428;2022-07-01T07:31:33;95633.66;;;17.49;77.10
38225;BME280;24025;48.138;11.428;2022-07-01T07:34:04;95629.19;;;17.70;75.66
38225;BME280;24025;48.138;11.428;2022-07-01T07:36:34;95628.44;;;17.66;75.88
38225;BME280;24025;48.138;11.428;2022-07-01T07:39:06;95624.28;;;17.61;75.78
38225;BME280;24025;48.138;11.428;2022-07-01T07:41:36;95622.78;;;17.56;76.14
38225;BME280;24025;48.138;11.428;2022-07-01T07:44:07;95636.06;;;17.74;75.51
38225;BME280;24025;48.138;11.428;2022-07-01T07:46:37;95642.03;;;17.59;76.00
38225;BME280;24025;48.138;11.428;2022-07-01T07:49:08;95657.63;;;17.40;76.72
38225;BME280;24025;48.138;11.428;2022-07-01T07:51:38;95666.88;;;17.43;76.90
38225;BME280;24025;48.138;11.428;2022-07-01T07:54:08;95671.66;;;16.87;77.83
38225;BME280;24025;48.138;11.428;2022-07-01T07:56:39;95680.28;;;16.71;78.89
38225;BME280;24025;48.138;11.428;2022-07-01T07:59:09;95694.00;;;16.35;79.99
38225;BME280;24025;48.138;11.428;2022-07-01T08:01:40;95701.78;;;16.19;79.65
38225;BME280;24025;48.138;11.428;2022-07-01T08:04:11;95705.00;;;15.89;80.83
38225;BME280;24025;48.138;11.428;2022-07-01T08:06:41;95737.00;;;15.58;81.58
38225;BME280;24025;48.138;11.428;2022-07-01T08:09:12;95751.25;;;15.41;81.59
38225;BME280;24025;48.138;11.428;2022-07-01T08:11:42;95754.00;;;14.95;83.15
38225;BME280;24025;48.138;11.428;2022-07-01T08:14:13;95754.75;;;14.81;83.58
38225;BME280;24025;48.138;11.428;2022-07-01T08:16:43;95763.94;;;14.62;84.85
38225;BME280;24025;48.138;11.428;2022-07-01T08:19:13;95783.09;;;14.47;83.69
38225;BME280;24025;48.138;11.428;2022-07-01T08:21:44;95785.34;;;14.34;84.00
38225;BME280;24025;48.138;11.428;2022-07-01T08:24:15;95787.22;;;14.26;85.39
38225;BME280;24025;48.138;11.428;2022-07-01T08:26:45;95798.31;;;14.21;87.28
38225;BME280;24025;48.138;11.428;2022-07-01T08:29:16;95799.44;;;14.06;87.17
38225;BME280;24025;48.138;11.428;2022-07-01T08:31:46;95798.63;;;14.02;87.62
38225;BME280;24025;48.138;11.428;2022-07-01T08:34:17;95810.75;;;13.74;87.61
38225;BME280;24025;48.138;11.428;2022-07-01T08:36:47;95812.75;;;13.88;89.00
38225;BME280;24025;48.138;11.428;2022-07-01T08:39:18;95820.03;;;13.95;87.66
38225;BME280;24025;48.138;11.428;2022-07-01T08:41:48;95820.38;;;13.86;86.72
38225;BME280;24025;48.138;11.428;2022-07-01T08:44:19;95822.28;;;13.78;86.39
38225;BME280;24025;48.138;11.428;2022-07-01T08:46:50;95824.16;;;13.74;87.12
38225;BME280;24025;48.138;11.428;2022-07-01T08:49:21;95821.09;;;13.72;86.17
38225;BME280;24025;48.138;11.428;2022-07-01T08:51:52;95809.22;;;13.73;86.90
38225;BME280;24025;48.138;11.428;2022-07-01T08:54:25;95804.31;;;13.86;85.07
38225;BME280;24025;48.138;11.428;2022-07-01T08:56:56;95801.19;;;13.77;84.83
38225;BME280;24025;48.138;11.428;2022-07-01T08:59:26;95803.09;;;13.73;86.58
38225;BME280;24025;48.138;11.428;2022-07-01T09:01:59;95815.75;;;13.76;86.06
38225;BME280;24025;48.138;11.428;2022-07-01T09:04:30;95826.41;;;13.69;86.69
38225;BME280;24025;48.138;11.428;2022-07-01T09:07:04;95818.38;;;13.62;86.92
38225;BME280;24025;48.138;11.428;2022-07-01T09:09:36;95819.09;;;13.55;87.32
38225;BME280;24025;48.138;11.428;2022-07-01T09:12:07;95818.47;;;13.79;87.28
38225;BME280;24025;48.138;11.428;2022-07-01T09:14:38;95816.84;;;13.60;87.52
38225;BME280;24025;48.138;11.428;2022-07-01T09:17:10;95824.50;;;13.62;88.70
38225;BME280;24025;48.138;11.428;2022-07-01T09:19:49;95825.31;;;13.77;87.01
38225;BME280;24025;48.138;11.428;2022-07-01T09:22:20;95824.25;;;13.92;87.03
38225;BME280;24025;48.138;11.428;2022-07-01T09:24:51;95821.22;;;14.01;87.28
38225;BME280;24025;48.138;11.428;2022-07-01T09:27:25;95819.69;;;13.96;86.38
38225;BME280;24025;48.138;11.428;2022-07-01T09:29:56;95817.41;;;14.02;86.33
38225;BME280;24025;48.138;11.428;2022-07-01T09:32:27;95816.25;;;13.99;86.65
38225;BME280;24025;48.138;11.428;2022-07-01T09:34:57;95805.25;;;14.26;86.50
38225;BME280;24025;48.138;11.428;2022-07-01T09:37:27;95810.31;;;14.45;85.34
38225;BME280;24025;48.138;11.428;2022-07-01T09:39:58;95825.66;;;14.55;84.40
38225;BME280;24025;48.138;11.428;2022-07-01T09:42:28;95831.81;;;14.66;83.99
38225;BME280;24025;48.138;11.428;2022-07-01T09:45:01;95839.47;;;14.57;82.64
38225;BME280;24025;48.138;11.428;2022-07-01T09:47:39;95836.41;;;14.52;82.65
38225;BME280;24025;48.138;11.428;2022-07-01T09:50:10;95830.22;;;14.48;82.33
38225;BME280;24025;48.138;11.428;2022-07-01T09:52:40;95829.06;;;14.41;82.68
38225;BME280;24025;48.138;11.428;2022-07-01T09:55:11;95828.38;;;14.59;84.20
38225;BME280;24025;48.138;11.428;2022-07-01T09:57:42;95833.31;;;14.57;83.48
38225;BME280;24025;48.138;11.428;2022-07-01T10:00:13;95837.50;;;14.47;81.82
38225;BME280;24025;48.138;11.428;2022-07-01T10:02:44;95832.97;;;14.58;83.14
38225;BME280;24025;48.138;11.428;2022-07-01T10:05:17;95843.34;;;14.78;82.32
38225;BME280;24025;48.138;11.428;2022-07-01T10:13:21;95856.81;;;15.06;81.81
38225;BME280;24025;48.138;11.428;2022-07-01T10:15:55;95862.94;;;14.89;81.15
38225;BME280;24025;48.138;11.428;2022-07-01T10:18:27;95864.84;;;14.78;81.39
38225;BME280;24025;48.138;11.428;2022-07-01T10:20:58;95863.63;;;14.61;82.77
38225;BME280;24025;48.138;11.428;2022-07-01T10:23:42;95869.03;;;14.71;81.71
38225;BME280;24025;48.138;11.428;2022-07-01T10:26:12;95879.34;;;14.52;82.45
38225;BME280;24025;48.138;11.428;2022-07-01T10:28:43;95867.84;;;14.58;83.38
38225;BME280;24025;48.138;11.428;2022-07-01T10:31:17;95882.81;;;14.59;83.88
38225;BME280;24025;48.138;11.428;2022-07-01T10:36:31;95879.81;;;14.89;81.93
38225;BME280;24025;48.138;11.428;2022-07-01T10:42:00;95879.03;;;14.85;82.58
38225;BME280;24025;48.138;11.428;2022-07-01T10:44:34;95880.59;;;14.93;82.67
38225;BME280;24025;48.138;11.428;2022-07-01T10:47:07;95882.88;;;14.88;82.20
38225;BME280;24025;48.138;11.428;2022-07-01T10:52:13;95882.91;;;14.95;83.27
38225;BME280;24025;48.138;11.428;2022-07-01T10:54:55;95876.78;;;15.12;82.64
38225;BME280;24025;48.138;11.428;2022-07-01T10:57:38;95885.25;;;15.28;82.14
38225;BME280;24025;48.138;11.428;2022-07-01T11:02:39;95889.06;;;15.38;80.33
38225;BME280;24025;48.138;11.428;2022-07-01T11:05:12;95880.22;;;15.41;80.17
38225;BME280;24025;48.138;11.428;2022-07-01T11:07:45;95884.84;;;15.55;79.72
38225;BME280;24025;48.138;11.428;2022-07-01T11:10:16;95881.03;;;15.67;78.78
38225;BME280;24025;48.138;11.428;2022-07-01T11:12:47;95885.22;;;15.53;80.38
38225;BME280;24025;48.138;11.428;2022-07-01T11:15:20;95891.75;;;15.42;80.46
38225;BME280;24025;48.138;11.428;2022-07-01T11:17:54;95894.44;;;15.31;81.95
38225;BME280;24025;48.138;11.428;2022-07-01T11:20:29;95896.34;;;15.23;82.16
38225;BME280;24025;48.138;11.428;2022-07-01T11:23:00;95897.84;;;14.96;82.99
38225;BME280;24025;48.138;11.428;2022-07-01T11:25:31;95900.53;;;14.96;82.71
38225;BME280;24025;48.138;11.428;2022-07-01T11:28:02;95900.53;;;14.96;83.75
38225;BME280;24025;48.138;11.428;2022-07-01T11:30:32;95896.28;;;14.91;84.53
38225;BME280;24025;48.138;11.428;2022-07-01T11:33:03;95895.91;;;14.89;84.12
38225;BME280;24025;48.138;11.428;2022-07-01T11:35:34;95913.19;;;14.88;84.17
38225;BME280;24025;48.138;11.428;2022-07-01T11:38:24;95906.28;;;15.01;84.06
38225;BME280;24025;48.138;11.428;2022-07-01T11:43:51;95908.16;;;14.80;84.70
38225;BME280;24025;48.138;11.428;2022-07-01T11:46:22;95911.59;;;14.73;85.55
38225;BME280;24025;48.138;11.428;2022-07-01T11:48:54;95913.91;;;14.67;84.45
38225;BME280;24025;48.138;11.428;2022-07-01T11:51:26;95907.78;;;14.81;84.64
38225;BME280;24025;48.138;11.428;2022-07-01T11:53:57;95909.38;;;15.04;84.22
38225;BME280;24025;48.138;11.428;2022-07-01T11:56:31;95900.16;;;15.05;85.29
38225;BME280;24025;48.138;11.428;2022-07-01T11:59:02;95911.31;;;15.24;85.06
38225;BME280;24025;48.138;11.428;2022-07-01T12:01:34;95911.34;;;15.39;83.31
38225;BME280;24025;48.138;11.428;2022-07-01T12:04:09;95911.31;;;15.35;81.34
38225;BME280;24025;48.138;11.428;2022-07-01T12:06:40;95900.19;;;15.37;81.67
38225;BME280;24025;48.138;11.428;2022-07-01T12:09:18;95907.88;;;15.52;82.21
38225;BME280;24025;48.138;11.428;2022-07-01T12:11:49;95911.75;;;15.69;81.95
38225;BME280;24025;48.138;11.428;2022-07-01T12:14:33;95905.97;;;15.67;80.29
38225;BME280;24025;48.138;11.428;2022-07-01T12:17:06;95924.00;;;15.59;78.89
38225;BME280;24025;48.138;11.428;2022-07-01T12:22:12;95929.78;;;15.47;79.69
38225;BME280;24025;48.138;11.428;2022-07-01T12:24:43;95946.66;;;15.58;79.10
38225;BME280;24025;48.138;11.428;2022-07-01T12:27:14;95941.31;;;15.55;80.68
38225;BME280;24025;48.138;11.428;2022-07-01T12:32:18;95942.44;;;15.47;80.22
38225;BME280;24025;48.138;11.428;2022-07-01T12:37:30;95951.25;;;15.22;81.19
38225;BME280;24025;48.138;11.428;2022-07-01T12:40:06;95966.16;;;15.09;81.94
38225;BME280;24025;48.138;11.428;2022-07-01T12:42:43;95968.44;;;15.00;83.72
38225;BME280;24025;48.138;11.428;2022-07-01T12:45:16;95983.75;;;14.92;84.05
38225;BME280;24025;48.138;11.428;2022-07-01T12:47:48;95998.34;;;14.88;84.66
38225;BME280;24025;48.138;11.428;2022-07-01T12:53:10;95994.16;;;15.01;84.63
38225;BME280;24025;48.138;11.428;2022-07-01T12:55:45;95984.22;;;15.12;84.17
38225;BME280;24025;48.138;11.428;2022-07-01T12:58:18;95993.09;;;15.30;83.47
38225;BME280;24025;48.138;11.428;2022-07-01T13:00:51;96003.91;;;15.55;82.79
38225;BME280;24025;48.138;11.428;2022-07-01T13:03:24;95998.53;;;15.88;83.34
38225;BME280;24025;48.138;11.428;2022-07-01T13:05:56;95986.66;;;15.99;82.01
38225;BME280;24025;48.138;11.428;2022-07-01T13:08:26;95963.97;;;15.97;80.14
38225;BME280;24025;48.138;11.428;2022-07-01T13:10:57;95930.50;;;16.12;79.97
38225;BME280;24025;48.138;11.428;2022-07-01T13:13:27;95917.44;;;16.10;79.32
38225;BME280;24025;48.138;11.428;2022-07-01T13:15:58;95937.44;;;16.06;79.09
38225;BME280;24025;48.138;11.428;2022-07-01T13:18:28;95941.66;;;16.07;79.72
38225;BME280;24025;48.138;11.428;2022-07-01T13:20:59;95937.47;;;15.92;79.52
38225;BME280;24025;48.138;11.428;2022-07-01T13:23:29;95940.13;;;16.02;80.23
38225;BME280;24025;48.138;11.428;2022-07-01T13:26:00;95933.59;;;16.07;80.40
38225;BME280;24025;48.138;11.428;2022-07-01T13:28:30;95942.81;;;16.13;80.69
38225;BME280;24025;48.138;11.428;2022-07-01T13:31:01;95926.25;;;16.14;79.49
38225;BME280;24025;48.138;11.428;2022-07-01T13:33:31;95940.13;;;16.13;78.32
38225;BME280;24025;48.138;11.428;2022-07-01T13:36:02;95937.03;;;16.11;78.40
38225;BME280;24025;48.138;11.428;2022-07-01T13:38:33;95944.78;;;15.91;76.39
38225;BME280;24025;48.138;11.428;2022-07-01T13:41:03;95965.16;;;15.81;78.72
38225;BME280;24025;48.138;11.428;2022-07-01T13:43:33;95962.44;;;15.71;79.21